sensor_id;sensor_type;location;lat;lon;timestamp;pressure;altitude;pressure_sealevel;temperature;humidity
23241;BME280;11789;53.482;9.862;2022-11-20T00:01:12;101309.84;;;0.04;100.00
23241;BME280;11789;53.482;9.862;2022-11-20T00:03:38;101311.69;;;0.07;100.00
23241;BME280;11789;53.482;9.862;2022-11-20T00:06:06;101321.94;;;0.08;100.00
23241;BME280;11789;53.482;9.862;2022-11-20T00:08:32;101315.97;;;0.08;100.00
23241;BME280;11789;53.482;9.862;2022-11-20T00:11:09;101317.81;;;0.10;100.00
23241;BME280;11789;53.482;9.862;2022-11-20T00:13:35;101323.03;;;0.13;100.00
23241;BME280;11789;53.482;9.862;2022-11-20T00:16:02;101315.28;;;0.10;100.00
23241;BME280;11789;53.482;9.862;2022-11-20T00:18:32;101307.66;;;0.10;100.00
23241;BME280;11789;53.482;9.862;2022-11-20T00:21:07;101313.66;;;0.12;100.00
23241;BME280;11789;53.482;9.862;2022-11-20T00:23:33;101315.47;;;0.15;100.00
23241;BME280;11789;53.482;9.862;2022-11-20T00:26:06;101315.56;;;0.16;100.00
23241;BME280;11789;53.482;9.862;2022-11-20T00:28:33;101314.59;;;0.14;100.00
23241;BME280;11789;53.482;9.862;2022-11-20T00:31:08;101315.34;;;0.12;100.00
23241;BME280;11789;53.482;9.862;2022-11-20T00:33:34;101308.50;;;0.11;100.00
23241;BME280;11789;53.482;9.862;2022-11-20T00:36:01;101311.75;;;0.08;100.00
23241;BME280;11789;53.482;9.862;2022-11-20T00:38:27;101315.97;;;0.08;100.00
23241;BME280;11789;53.482;9.862;2022-11-20T00:40:57;101315.81;;;0.05;100.00
23241;BME280;11789;53.482;9.862;2022-11-20T00:43:24;101311.63;;;0.05;100.00
23241;BME280;11789;53.482;9.862;2022-11-20T00:45:50;101311.63;;;0.05;100.00
23241;BME280;11789;53.482;9.862;2022-11-20T00:48:16;101305.59;;;0.03;100.00
23241;BME280;11789;53.482;9.862;2022-11-20T00:50:42;101306.31;;;0.01;100.00
23241;BME280;11789;53.482;9.862;2022-11-20T00:53:07;101310.72;;;0.05;100.00
23241;BME280;11789;53.482;9.862;2022-11-20T00:55:33;101309.16;;;0.07;100.00
23241;BME280;11789;53.482;9.862;2022-11-20T00:57:58;101299.06;;;0.08;100.00
23241;BME280;11789;53.482;9.862;2022-11-20T01:00:24;101303.31;;;0.09;100.00
23241;BME280;11789;53.482;9.862;2022-11-20T01:02:49;101301.59;;;0.08;100.00
23241;BME280;11789;53.482;9.862;2022-11-20T01:05:15;101298.25;;;0.09;100.00
23241;BME280;11789;53.482;9.862;2022-11-20T01:07:40;101302.63;;;0.12;100.00
23241;BME280;11789;53.482;9.862;2022-11-20T01:10:06;101294.94;;;0.10;100.00
23241;BME280;11789;53.482;9.862;2022-11-20T01:12:31;101301.53;;;0.07;100.00
23241;BME280;11789;53.482;9.862;2022-11-20T01:14:57;101301.59;;;0.08;100.00
23241;BME280;11789;53.482;9.862;2022-11-20T01:17:22;101295.69;;;0.09;100.00
23241;BME280;11789;53.482;9.862;2022-11-20T01:19:49;101298.25;;;0.09;100.00
23241;BME280;11789;53.482;9.862;2022-11-20T01:22:15;101297.38;;;0.09;100.00
23241;BME280;11789;53.482;9.862;2022-11-20T01:24:41;101290.63;;;0.09;100.00
23241;BME280;11789;53.482;9.862;2022-11-20T01:27:06;101288.75;;;0.05;100.00
23241;BME280;11789;53.482;9.862;2022-11-20T01:30:00;101282.88;;;0.06;100.00
23241;BME280;11789;53.482;9.862;2022-11-20T01:32:25;101284.44;;;0.04;100.00
23241;BME280;11789;53.482;9.862;2022-11-20T01:34:50;101279.22;;;0.01;100.00
23241;BME280;11789;53.482;9.862;2022-11-20T01:37:16;101279.12;;;-0.01;100.00
23241;BME280;11789;53.482;9.862;2022-11-20T01:39:41;101279.22;;;0.01;100.00
23241;BME280;11789;53.482;9.862;2022-11-20T01:42:07;101273.97;;;-0.02;100.00
23241;BME280;11789;53.482;9.862;2022-11-20T01:44:57;101272.41;;;0.00;100.00
23241;BME280;11789;53.482;9.862;2022-11-20T01:47:44;101268.25;;;0.02;100.00
23241;BME280;11789;53.482;9.862;2022-11-20T01:50:17;101263.34;;;0.05;100.00
23241;BME280;11789;53.482;9.862;2022-11-20T01:52:51;101258.25;;;0.05;100.00
23241;BME280;11789;53.482;9.862;2022-11-20T01:55:23;101258.16;;;0.04;100.00
23241;BME280;11789;53.482;9.862;2022-11-20T01:57:54;101260.63;;;0.02;100.00
23241;BME280;11789;53.482;9.862;2022-11-20T02:00:20;101262.38;;;0.03;100.00
23241;BME280;11789;53.482;9.862;2022-11-20T02:02:51;101252.19;;;0.03;100.00
23241;BME280;11789;53.482;9.862;2022-11-20T02:05:35;101261.13;;;-0.05;100.00
23241;BME280;11789;53.482;9.862;2022-11-20T02:08:04;101253.66;;;-0.02;100.00
23241;BME280;11789;53.482;9.862;2022-11-20T02:10:31;101250.19;;;-0.04;100.00
23241;BME280;11789;53.482;9.862;2022-11-20T02:13:00;101241.53;;;-0.08;100.00
23241;BME280;11789;53.482;9.862;2022-11-20T02:15:45;101245.75;;;-0.08;100.00
23241;BME280;11789;53.482;9.862;2022-11-20T02:18:11;101244.94;;;-0.07;100.00
23241;BME280;11789;53.482;9.862;2022-11-20T02:20:41;101239.91;;;-0.06;100.00
23241;BME280;11789;53.482;9.862;2022-11-20T02:23:08;101241.59;;;-0.06;100.00
23241;BME280;11789;53.482;9.862;2022-11-20T02:25:38;101244.34;;;-0.02;100.00
23241;BME280;11789;53.482;9.862;2022-11-20T02:28:05;101236.66;;;-0.03;100.00
23241;BME280;11789;53.482;9.862;2022-11-20T02:30:31;101241.00;;;-0.01;100.00
23241;BME280;11789;53.482;9.862;2022-11-20T02:32:57;101231.59;;;-0.03;100.00
23241;BME280;11789;53.482;9.862;2022-11-20T02:37:52;101234.34;;;0.02;100.00
23241;BME280;11789;53.482;9.862;2022-11-20T02:40:19;101231.00;;;0.03;100.00
23241;BME280;11789;53.482;9.862;2022-11-20T02:42:44;101226.94;;;0.06;100.00
23241;BME280;11789;53.482;9.862;2022-11-20T02:45:10;101228.69;;;0.07;100.00
23241;BME280;11789;53.482;9.862;2022-11-20T02:47:36;101227.00;;;0.08;100.00
23241;BME280;11789;53.482;9.862;2022-11-20T02:50:03;101224.41;;;0.06;100.00
23241;BME280;11789;53.482;9.862;2022-11-20T02:52:29;101222.72;;;0.07;100.00
23241;BME280;11789;53.482;9.862;2022-11-20T02:54:55;101219.38;;;0.08;100.00
23241;BME280;11789;53.482;9.862;2022-11-20T02:57:20;101215.31;;;0.11;100.00
23241;BME280;11789;53.482;9.862;2022-11-20T02:59:46;101228.09;;;0.13;100.00
23241;BME280;11789;53.482;9.862;2022-11-20T03:02:11;101222.16;;;0.12;100.00
23241;BME280;11789;53.482;9.862;2022-11-20T03:04:37;101219.53;;;0.11;100.00
23241;BME280;11789;53.482;9.862;2022-11-20T03:07:02;101214.22;;;0.06;100.00
23241;BME280;11789;53.482;9.862;2022-11-20T03:09:28;101218.50;;;0.07;100.00
23241;BME280;11789;53.482;9.862;2022-11-20T03:11:53;101215.97;;;0.07;100.00
23241;BME280;11789;53.482;9.862;2022-11-20T03:14:19;101210.88;;;0.07;100.00
23241;BME280;11789;53.482;9.862;2022-11-20T03:16:44;101216.78;;;0.06;100.00
23241;BME280;11789;53.482;9.862;2022-11-20T03:19:11;101221.75;;;0.05;100.00
23241;BME280;11789;53.482;9.862;2022-11-20T03:21:36;101216.78;;;0.06;100.00
23241;BME280;11789;53.482;9.862;2022-11-20T03:24:03;101210.13;;;0.10;100.00
23241;BME280;11789;53.482;9.862;2022-11-20T03:26:28;101209.44;;;0.12;100.00
23241;BME280;11789;53.482;9.862;2022-11-20T03:28:56;101208.62;;;0.13;100.00
23241;BME280;11789;53.482;9.862;2022-11-20T03:31:25;101206.87;;;0.12;100.00
23241;BME280;11789;53.482;9.862;2022-11-20T03:33:51;101201.81;;;0.12;100.00
23241;BME280;11789;53.482;9.862;2022-11-20T03:36:19;101206.87;;;0.12;100.00
23241;BME280;11789;53.482;9.862;2022-11-20T03:38:45;101208.62;;;0.13;100.00
23241;BME280;11789;53.482;9.862;2022-11-20T03:41:14;101197.66;;;0.14;100.00
23241;BME280;11789;53.482;9.862;2022-11-20T03:43:40;101195.09;;;0.14;100.00
23241;BME280;11789;53.482;9.862;2022-11-20T03:46:07;101196.72;;;0.12;100.00
23241;BME280;11789;53.482;9.862;2022-11-20T03:48:32;101190.78;;;0.12;100.00
23241;BME280;11789;53.482;9.862;2022-11-20T03:51:31;101195.91;;;0.13;100.00
23241;BME280;11789;53.482;9.862;2022-11-20T03:54:00;101190.97;;;0.16;100.00
23241;BME280;11789;53.482;9.862;2022-11-20T03:56:28;101196.94;;;0.17;100.00
23241;BME280;11789;53.482;9.862;2022-11-20T03:58:54;101191.78;;;0.15;100.00
23241;BME280;11789;53.482;9.862;2022-11-20T04:01:25;101191.84;;;0.17;100.00
23241;BME280;11789;53.482;9.862;2022-11-20T04:03:53;101186.72;;;0.15;100.00
23241;BME280;11789;53.482;9.862;2022-11-20T04:06:25;101179.84;;;0.14;100.00
23241;BME280;11789;53.482;9.862;2022-11-20T04:08:51;101184.94;;;0.14;100.00
23241;BME280;11789;53.482;9.862;2022-11-20T04:11:21;101180.59;;;0.12;100.00
23241;BME280;11789;53.482;9.862;2022-11-20T04:13:50;101182.19;;;0.10;100.00
23241;BME280;11789;53.482;9.862;2022-11-20T04:16:22;101182.87;;;0.06;100.00
23241;BME280;11789;53.482;9.862;2022-11-20T04:18:52;101189.47;;;0.02;100.00
23241;BME280;11789;53.482;9.862;2022-11-20T04:21:19;101180.91;;;0.00;100.00
23241;BME280;11789;53.482;9.862;2022-11-20T04:23:44;101182.72;;;0.03;100.00
23241;BME280;11789;53.482;9.862;2022-11-20T04:26:11;101184.53;;;0.05;100.00
23241;BME280;11789;53.482;9.862;2022-11-20T04:28:37;101180.31;;;0.06;100.00
23241;BME280;11789;53.482;9.862;2022-11-20T04:33:29;101178.66;;;0.06;100.00
23241;BME280;11789;53.482;9.862;2022-11-20T04:35:54;101176.97;;;0.07;100.00
23241;BME280;11789;53.482;9.862;2022-11-20T04:38:20;101171.81;;;0.05;100.00
23241;BME280;11789;53.482;9.862;2022-11-20T04:40:45;101168.19;;;0.00;100.00
23241;BME280;11789;53.482;9.862;2022-11-20T04:43:11;101172.31;;;-0.02;100.00
23241;BME280;11789;53.482;9.862;2022-11-20T04:45:36;101172.59;;;0.04;100.00
23241;BME280;11789;53.482;9.862;2022-11-20T04:48:01;101167.41;;;0.01;100.00
23241;BME280;11789;53.482;9.862;2022-11-20T04:50:27;101166.53;;;0.01;100.00
23241;BME280;11789;53.482;9.862;2022-11-20T04:52:52;101169.78;;;-0.02;100.00
23241;BME280;11789;53.482;9.862;2022-11-20T04:55:18;101168.69;;;-0.07;100.00
23241;BME280;11789;53.482;9.862;2022-11-20T04:57:43;101160.13;;;-0.09;100.00
23241;BME280;11789;53.482;9.862;2022-11-20T05:00:09;101163.47;;;-0.10;100.00
23241;BME280;11789;53.482;9.862;2022-11-20T05:02:35;101160.78;;;-0.13;100.00
23241;BME280;11789;53.482;9.862;2022-11-20T05:05:00;101156.50;;;-0.14;100.00
23241;BME280;11789;53.482;9.862;2022-11-20T05:07:25;101150.69;;;-0.12;100.00
23241;BME280;11789;53.482;9.862;2022-11-20T05:09:51;101153.97;;;-0.14;100.00
23241;BME280;11789;53.482;9.862;2022-11-20T05:12:16;101155.84;;;-0.10;100.00
23241;BME280;11789;53.482;9.862;2022-11-20T05:14:42;101154.25;;;-0.08;100.00
23241;BME280;11789;53.482;9.862;2022-11-20T05:17:10;101156.84;;;-0.07;100.00
23241;BME280;11789;53.482;9.862;2022-11-20T05:19:35;101153.50;;;-0.06;100.00
23241;BME280;11789;53.482;9.862;2022-11-20T05:22:01;101147.72;;;-0.03;100.00
23241;BME280;11789;53.482;9.862;2022-11-20T05:24:26;101144.22;;;-0.05;100.00
23241;BME280;11789;53.482;9.862;2022-11-20T05:26:51;101136.19;;;-0.14;100.00
23241;BME280;11789;53.482;9.862;2022-11-20T05:29:17;101149.00;;;-0.11;100.00
23241;BME280;11789;53.482;9.862;2022-11-20T05:31:42;101139.00;;;-0.08;100.00
23241;BME280;11789;53.482;9.862;2022-11-20T05:34:08;101147.12;;;-0.15;100.00
23241;BME280;11789;53.482;9.862;2022-11-20T05:36:34;101140.47;;;-0.13;100.00
23241;BME280;11789;53.482;9.862;2022-11-20T05:38:59;101146.47;;;-0.11;100.00
23241;BME280;11789;53.482;9.862;2022-11-20T05:41:24;101142.25;;;-0.11;100.00
23241;BME280;11789;53.482;9.862;2022-11-20T05:43:50;101136.41;;;-0.10;100.00
23241;BME280;11789;53.482;9.862;2022-11-20T05:46:18;101131.16;;;-0.13;100.00
23241;BME280;11789;53.482;9.862;2022-11-20T05:48:59;101136.31;;;-0.11;100.00
23241;BME280;11789;53.482;9.862;2022-11-20T05:51:26;101133.13;;;-0.07;100.00
23241;BME280;11789;53.482;9.862;2022-11-20T05:53:51;101131.38;;;-0.08;100.00
23241;BME280;11789;53.482;9.862;2022-11-20T05:56:19;101127.81;;;-0.12;100.00
23241;BME280;11789;53.482;9.862;2022-11-20T05:58:45;101133.97;;;-0.07;100.00
23241;BME280;11789;53.482;9.862;2022-11-20T06:03:40;101127.09;;;-0.09;100.00
23241;BME280;11789;53.482;9.862;2022-11-20T06:06:07;101131.22;;;-0.11;100.00
23241;BME280;11789;53.482;9.862;2022-11-20T06:08:33;101127.00;;;-0.11;100.00
23241;BME280;11789;53.482;9.862;2022-11-20T06:11:03;101133.94;;;-0.08;100.00
23241;BME280;11789;53.482;9.862;2022-11-20T06:13:29;101127.59;;;-0.16;100.00
23241;BME280;11789;53.482;9.862;2022-11-20T06:15:55;101135.16;;;-0.18;100.00
23241;BME280;11789;53.482;9.862;2022-11-20T06:18:20;101128.25;;;-0.20;100.00
23241;BME280;11789;53.482;9.862;2022-11-20T06:20:46;101123.84;;;-0.24;100.00
23241;BME280;11789;53.482;9.862;2022-11-20T06:23:12;101126.41;;;-0.24;100.00
23241;BME280;11789;53.482;9.862;2022-11-20T06:25:39;101117.91;;;-0.25;100.00
23241;BME280;11789;53.482;9.862;2022-11-20T06:28:05;101116.28;;;-0.23;100.00
23241;BME280;11789;53.482;9.862;2022-11-20T06:30:30;101119.75;;;-0.21;100.00
23241;BME280;11789;53.482;9.862;2022-11-20T06:32:56;101114.56;;;-0.24;100.00
23241;BME280;11789;53.482;9.862;2022-11-20T06:35:21;101112.72;;;-0.27;100.00
23241;BME280;11789;53.482;9.862;2022-11-20T06:37:47;101113.59;;;-0.26;100.00
23241;BME280;11789;53.482;9.862;2022-11-20T06:40:12;101114.47;;;-0.26;100.00
23241;BME280;11789;53.482;9.862;2022-11-20T06:42:38;101106.84;;;-0.26;100.00
23241;BME280;11789;53.482;9.862;2022-11-20T06:45:03;101105.97;;;-0.26;100.00
23241;BME280;11789;53.482;9.862;2022-11-20T06:47:29;101101.00;;;-0.24;100.00
23241;BME280;11789;53.482;9.862;2022-11-20T06:49:55;101104.47;;;-0.22;100.00
23241;BME280;11789;53.482;9.862;2022-11-20T06:52:20;101102.84;;;-0.20;100.00
23241;BME280;11789;53.482;9.862;2022-11-20T06:54:46;101096.84;;;-0.22;100.00
23241;BME280;11789;53.482;9.862;2022-11-20T06:57:11;101095.09;;;-0.23;100.00
23241;BME280;11789;53.482;9.862;2022-11-20T06:59:37;101097.75;;;-0.20;100.00
23241;BME280;11789;53.482;9.862;2022-11-20T07:02:02;101094.22;;;-0.24;100.00
23241;BME280;11789;53.482;9.862;2022-11-20T07:04:27;101091.75;;;-0.22;100.00
23241;BME280;11789;53.482;9.862;2022-11-20T07:06:53;101095.97;;;-0.23;100.00
23241;BME280;11789;53.482;9.862;2022-11-20T07:09:18;101099.44;;;-0.21;100.00
23241;BME280;11789;53.482;9.862;2022-11-20T07:11:44;101105.38;;;-0.20;100.00
23241;BME280;11789;53.482;9.862;2022-11-20T07:14:09;101102.78;;;-0.22;100.00
23241;BME280;11789;53.482;9.862;2022-11-20T07:16:35;101110.34;;;-0.23;100.00
23241;BME280;11789;53.482;9.862;2022-11-20T07:19:02;101111.06;;;-0.26;100.00
23241;BME280;11789;53.482;9.862;2022-11-20T07:21:28;101109.38;;;-0.26;100.00
23241;BME280;11789;53.482;9.862;2022-11-20T07:23:53;101101.91;;;-0.22;100.00
23241;BME280;11789;53.482;9.862;2022-11-20T07:26:19;101112.28;;;-0.18;100.00
23241;BME280;11789;53.482;9.862;2022-11-20T07:28:45;101100.53;;;-0.16;100.00
23241;BME280;11789;53.482;9.862;2022-11-20T07:31:13;101105.81;;;-0.11;100.00
23241;BME280;11789;53.482;9.862;2022-11-20T07:33:39;101103.38;;;-0.10;100.00
23241;BME280;11789;53.482;9.862;2022-11-20T07:36:05;101101.53;;;-0.12;100.00
23241;BME280;11789;53.482;9.862;2022-11-20T07:38:30;101097.38;;;-0.10;100.00
23241;BME280;11789;53.482;9.862;2022-11-20T07:40:56;101105.22;;;-0.06;100.00
23241;BME280;11789;53.482;9.862;2022-11-20T07:43:23;101103.66;;;-0.04;100.00
23241;BME280;11789;53.482;9.862;2022-11-20T07:45:49;101107.84;;;-0.04;100.00
23241;BME280;11789;53.482;9.862;2022-11-20T07:48:14;101103.56;;;-0.05;100.00
23241;BME280;11789;53.482;9.862;2022-11-20T07:50:40;101102.78;;;-0.04;100.00
23241;BME280;11789;53.482;9.862;2022-11-20T07:53:05;101100.88;;;-0.08;100.00
23241;BME280;11789;53.482;9.862;2022-11-20T07:55:32;101104.34;;;-0.06;100.00
23241;BME280;11789;53.482;9.862;2022-11-20T07:58:00;101103.56;;;-0.05;100.00
23241;BME280;11789;53.482;9.862;2022-11-20T08:00:26;101100.22;;;-0.04;100.00
23241;BME280;11789;53.482;9.862;2022-11-20T08:02:52;101101.59;;;-0.11;100.00
23241;BME280;11789;53.482;9.862;2022-11-20T08:05:18;101095.66;;;-0.11;100.00
23241;BME280;11789;53.482;9.862;2022-11-20T08:07:44;101101.81;;;-0.06;100.00
23241;BME280;11789;53.482;9.862;2022-11-20T08:10:11;101101.81;;;-0.06;100.00
23241;BME280;11789;53.482;9.862;2022-11-20T08:12:51;101106.91;;;-0.06;100.00
23241;BME280;11789;53.482;9.862;2022-11-20T08:15:38;101110.63;;;0.01;100.00
23241;BME280;11789;53.482;9.862;2022-11-20T08:18:06;101107.38;;;0.05;100.00
23241;BME280;11789;53.482;9.862;2022-11-20T08:20:32;101112.69;;;0.09;100.00
23241;BME280;11789;53.482;9.862;2022-11-20T08:23:02;101116.19;;;0.11;100.00
23241;BME280;11789;53.482;9.862;2022-11-20T08:25:32;101111.22;;;0.14;100.00
23241;BME280;11789;53.482;9.862;2022-11-20T08:28:03;101118.25;;;0.20;100.00
23241;BME280;11789;53.482;9.862;2022-11-20T08:30:29;101113.91;;;0.17;100.00
23241;BME280;11789;53.482;9.862;2022-11-20T08:33:03;101117.16;;;0.15;100.00
23241;BME280;11789;53.482;9.862;2022-11-20T08:35:32;101116.25;;;0.13;100.00
23241;BME280;11789;53.482;9.862;2022-11-20T08:37:58;101117.97;;;0.14;100.00
23241;BME280;11789;53.482;9.862;2022-11-20T08:40:24;101107.97;;;0.17;100.00
23241;BME280;11789;53.482;9.862;2022-11-20T08:42:50;101112.88;;;0.14;100.00
23241;BME280;11789;53.482;9.862;2022-11-20T08:45:18;101119.00;;;0.17;100.00
23241;BME280;11789;53.482;9.862;2022-11-20T08:47:44;101116.72;;;0.23;100.00
23241;BME280;11789;53.482;9.862;2022-11-20T08:50:11;101113.44;;;0.84;100.00
23241;BME280;11789;53.482;9.862;2022-11-20T08:52:37;101115.56;;;1.57;100.00
23241;BME280;11789;53.482;9.862;2022-11-20T08:55:04;101106.41;;;2.52;100.00
23241;BME280;11789;53.482;9.862;2022-11-20T08:57:34;101096.03;;;6.46;81.99
23241;BME280;11789;53.482;9.862;2022-11-20T09:00:00;101099.09;;;6.73;76.27
23241;BME280;11789;53.482;9.862;2022-11-20T09:02:25;101109.06;;;4.73;83.29
23241;BME280;11789;53.482;9.862;2022-11-20T09:04:51;101108.25;;;3.58;87.12
23241;BME280;11789;53.482;9.862;2022-11-20T09:07:17;101111.72;;;2.82;89.93
23241;BME280;11789;53.482;9.862;2022-11-20T09:09:43;101115.63;;;2.24;92.61
23241;BME280;11789;53.482;9.862;2022-11-20T09:12:08;101118.44;;;1.87;94.85
23241;BME280;11789;53.482;9.862;2022-11-20T09:14:34;101117.56;;;1.64;96.95
23241;BME280;11789;53.482;9.862;2022-11-20T09:16:59;101113.41;;;1.45;97.98
23241;BME280;11789;53.482;9.862;2022-11-20T09:19:25;101121.31;;;1.30;98.90
23241;BME280;11789;53.482;9.862;2022-11-20T09:21:58;101114.09;;;1.20;99.90
23241;BME280;11789;53.482;9.862;2022-11-20T09:24:25;101114.66;;;1.13;100.00
23241;BME280;11789;53.482;9.862;2022-11-20T09:26:51;101110.09;;;1.06;100.00
23241;BME280;11789;53.482;9.862;2022-11-20T09:29:16;101109.19;;;1.04;100.00
23241;BME280;11789;53.482;9.862;2022-11-20T09:31:42;101112.41;;;1.00;100.00
23241;BME280;11789;53.482;9.862;2022-11-20T09:34:07;101118.09;;;0.94;100.00
23241;BME280;11789;53.482;9.862;2022-11-20T09:36:33;101114.69;;;0.94;100.00
23241;BME280;11789;53.482;9.862;2022-11-20T09:38:58;101113.03;;;0.94;100.00
23241;BME280;11789;53.482;9.862;2022-11-20T09:47:01;101116.56;;;0.98;100.00
23241;BME280;11789;53.482;9.862;2022-11-20T09:54:37;101111.69;;;1.02;100.00
23241;BME280;11789;53.482;9.862;2022-11-20T09:57:09;101111.69;;;1.02;100.00
23241;BME280;11789;53.482;9.862;2022-11-20T09:59:40;101109.94;;;1.01;100.00
23241;BME280;11789;53.482;9.862;2022-11-20T10:02:25;101108.19;;;1.00;100.00
23241;BME280;11789;53.482;9.862;2022-11-20T10:04:58;101103.22;;;1.03;100.00
23241;BME280;11789;53.482;9.862;2022-11-20T10:07:31;101104.97;;;1.04;100.00
23241;BME280;11789;53.482;9.862;2022-11-20T10:10:00;101106.84;;;1.09;100.00
23241;BME280;11789;53.482;9.862;2022-11-20T10:15:24;101087.56;;;1.15;100.00
23241;BME280;11789;53.482;9.862;2022-11-20T10:26:02;101094.34;;;1.36;100.00
23241;BME280;11789;53.482;9.862;2022-11-20T10:31:00;101084.97;;;1.35;100.00
23241;BME280;11789;53.482;9.862;2022-11-20T10:33:34;101090.09;;;1.36;100.00
23241;BME280;11789;53.482;9.862;2022-11-20T10:36:26;101087.69;;;1.39;100.00
23241;BME280;11789;53.482;9.862;2022-11-20T10:39:00;101080.09;;;1.41;100.00
23241;BME280;11789;53.482;9.862;2022-11-20T10:41:31;101075.66;;;1.35;100.00
23241;BME280;11789;53.482;9.862;2022-11-20T10:44:15;101071.81;;;1.24;100.00
23241;BME280;11789;53.482;9.862;2022-11-20T10:47:03;101069.88;;;1.18;100.00
23241;BME280;11789;53.482;9.862;2022-11-20T10:49:33;101064.37;;;1.08;100.00
23241;BME280;11789;53.482;9.862;2022-11-20T10:52:12;101064.97;;;1.02;100.00
23241;BME280;11789;53.482;9.862;2022-11-20T10:59:55;101066.97;;;1.09;100.00
23241;BME280;11789;53.482;9.862;2022-11-20T11:02:32;101072.53;;;1.21;100.00
23241;BME280;11789;53.482;9.862;2022-11-20T11:07:39;101062.19;;;1.38;100.00
23241;BME280;11789;53.482;9.862;2022-11-20T11:10:16;101062.81;;;1.32;100.00
23241;BME280;11789;53.482;9.862;2022-11-20T11:12:47;101066.72;;;1.24;100.00
23241;BME280;11789;53.482;9.862;2022-11-20T11:15:30;101060.69;;;1.22;100.00
23241;BME280;11789;53.482;9.862;2022-11-20T11:17:56;101062.28;;;1.20;100.00
23241;BME280;11789;53.482;9.862;2022-11-20T11:20:23;101056.28;;;1.18;100.00
23241;BME280;11789;53.482;9.862;2022-11-20T11:22:57;101059.06;;;1.24;100.00
23241;BME280;11789;53.482;9.862;2022-11-20T11:25:35;101055.75;;;1.26;100.00
23241;BME280;11789;53.482;9.862;2022-11-20T11:28:04;101055.94;;;1.31;100.00
23241;BME280;11789;53.482;9.862;2022-11-20T11:30:41;101052.72;;;1.35;100.00
23241;BME280;11789;53.482;9.862;2022-11-20T11:33:18;101059.69;;;1.39;100.00
23241;BME280;11789;53.482;9.862;2022-11-20T11:35:49;101055.50;;;1.41;100.00
23241;BME280;11789;53.482;9.862;2022-11-20T11:38:27;101060.69;;;1.43;100.00
23241;BME280;11789;53.482;9.862;2022-11-20T11:40:54;101056.38;;;1.42;100.00
23241;BME280;11789;53.482;9.862;2022-11-20T11:43:27;101058.62;;;1.34;99.00
23241;BME280;11789;53.482;9.862;2022-11-20T11:49:18;101050.00;;;1.30;98.76
23241;BME280;11789;53.482;9.862;2022-11-20T11:52:08;101050.19;;;1.35;98.54
23241;BME280;11789;53.482;9.862;2022-11-20T11:55:14;101047.75;;;1.38;98.01
23241;BME280;11789;53.482;9.862;2022-11-20T12:00:18;101042.25;;;1.27;96.97
23241;BME280;11789;53.482;9.862;2022-11-20T12:05:18;101043.59;;;1.19;96.62
23241;BME280;11789;53.482;9.862;2022-11-20T12:10:37;101044.53;;;1.21;97.01
23241;BME280;11789;53.482;9.862;2022-11-20T12:15:48;101034.16;;;1.38;96.84
23241;BME280;11789;53.482;9.862;2022-11-20T12:18:22;101031.25;;;1.51;96.69
23241;BME280;11789;53.482;9.862;2022-11-20T12:23:44;101023.75;;;1.54;96.25
23241;BME280;11789;53.482;9.862;2022-11-20T12:34:43;101024.34;;;1.26;96.04
23241;BME280;11789;53.482;9.862;2022-11-20T12:37:24;101017.41;;;1.22;96.38
23241;BME280;11789;53.482;9.862;2022-11-20T12:39:58;101021.59;;;1.21;96.44
23241;BME280;11789;53.482;9.862;2022-11-20T12:42:33;101024.97;;;1.20;96.25
23241;BME280;11789;53.482;9.862;2022-11-20T12:45:55;101019.78;;;1.17;95.30
23241;BME280;11789;53.482;9.862;2022-11-20T12:48:53;101020.41;;;1.12;95.30
23241;BME280;11789;53.482;9.862;2022-11-20T12:51:51;101021.19;;;1.11;95.30
23241;BME280;11789;53.482;9.862;2022-11-20T13:02:30;101022.88;;;1.10;95.06
23241;BME280;11789;53.482;9.862;2022-11-20T13:07:51;101022.41;;;1.20;94.02
23241;BME280;11789;53.482;9.862;2022-11-20T13:10:42;101020.69;;;1.19;92.90
23241;BME280;11789;53.482;9.862;2022-11-20T13:15:46;101020.50;;;1.15;92.57
23241;BME280;11789;53.482;9.862;2022-11-20T13:18:13;101012.81;;;1.13;92.80
23241;BME280;11789;53.482;9.862;2022-11-20T13:20:44;101010.22;;;1.12;93.07
23241;BME280;11789;53.482;9.862;2022-11-20T13:23:10;101010.13;;;1.10;93.28
23241;BME280;11789;53.482;9.862;2022-11-20T13:25:38;101005.00;;;1.09;93.45
23241;BME280;11789;53.482;9.862;2022-11-20T13:30:47;101004.13;;;1.08;93.75
23241;BME280;11789;53.482;9.862;2022-11-20T13:36:04;101009.44;;;1.14;93.59
23241;BME280;11789;53.482;9.862;2022-11-20T13:38:50;101005.41;;;1.19;93.51
23241;BME280;11789;53.482;9.862;2022-11-20T13:41:53;101009.06;;;1.26;93.43
23241;BME280;11789;53.482;9.862;2022-11-20T13:45:08;100999.13;;;1.32;93.49
23241;BME280;11789;53.482;9.862;2022-11-20T13:47:24;100992.41;;;1.34;93.51
23241;BME280;11789;53.482;9.862;2022-11-20T13:49:55;100991.53;;;1.34;93.53
23241;BME280;11789;53.482;9.862;2022-11-20T13:52:58;100986.41;;;1.32;93.66
23241;BME280;11789;53.482;9.862;2022-11-20T13:58:12;100985.59;;;1.33;93.76
23241;BME280;11789;53.482;9.862;2022-11-20T14:00:51;100991.53;;;1.34;93.25
23241;BME280;11789;53.482;9.862;2022-11-20T14:03:25;100977.16;;;1.36;93.37
23241;BME280;11789;53.482;9.862;2022-11-20T14:05:56;100981.44;;;1.37;93.51
23241;BME280;11789;53.482;9.862;2022-11-20T14:11:16;100974.62;;;1.36;94.10
23241;BME280;11789;53.482;9.862;2022-11-20T14:14:02;100975.56;;;1.38;94.15
23241;BME280;11789;53.482;9.862;2022-11-20T14:16:32;100965.44;;;1.39;94.27
23241;BME280;11789;53.482;9.862;2022-11-20T14:21:50;100957.84;;;1.41;94.52
23241;BME280;11789;53.482;9.862;2022-11-20T14:24:24;100951.94;;;1.42;94.59
23241;BME280;11789;53.482;9.862;2022-11-20T14:26:51;100950.88;;;1.37;94.48
23241;BME280;11789;53.482;9.862;2022-11-20T14:29:19;100959.28;;;1.34;94.39
23241;BME280;11789;53.482;9.862;2022-11-20T14:31:47;100951.66;;;1.34;94.18